Time;durP1;ratioP1;P1;durP2;ratioP2;P2;SDS_P1;SDS_P2;PMS_P1;PMS_P2;Temp;Humidity;BMP_temperature;BMP_pressure;BME280_temperature;BME280_humidity;BME280_pressure;Samples;Min_cycle;Max_cycle;Signal;HPM_P1;HPM_P2
2020/12/24 00:00:46;;;;;;;53.10;33.08;;;12.70;99.90;;;;;;5094572;28;20603;-62
2020/12/24 00:03:14;;;;;;;42.90;30.48;;;12.70;99.90;;;;;;5094870;28;20043;-61
2020/12/24 00:05:41;;;;;;;48.45;29.58;;;12.70;99.90;;;;;;5112706;28;20067;-61
2020/12/24 00:08:10;;;;;;;35.72;25.98;;;12.60;99.90;;;;;;5094442;28;20061;-61
2020/12/24 00:10:37;;;;;;;37.38;24.17;;;12.70;99.90;;;;;;5065081;28;20397;-61
2020/12/24 00:13:05;;;;;;;37.50;26.50;;;12.70;99.90;;;;;;5085400;28;20517;-61
2020/12/24 00:15:32;;;;;;;34.90;24.70;;;12.60;99.90;;;;;;5094841;28;20050;-61
2020/12/24 00:18:05;;;;;;;32.25;22.42;;;12.60;99.90;;;;;;5112383;28;20674;-61
2020/12/24 00:20:33;;;;;;;33.20;22.98;;;12.60;99.90;;;;;;5094401;28;20408;-61
2020/12/24 00:23:01;;;;;;;34.92;22.42;;;12.60;99.90;;;;;;5077886;28;20043;-61
2020/12/24 00:25:28;;;;;;;36.40;23.48;;;12.50;99.90;;;;;;5092303;28;20071;-61
2020/12/24 00:27:56;;;;;;;37.08;24.00;;;12.50;99.90;;;;;;5094557;28;20052;-60
2020/12/24 00:30:23;;;;;;;37.05;23.60;;;12.50;99.90;;;;;;5113119;28;20051;-60
2020/12/24 00:32:50;;;;;;;31.77;24.02;;;12.50;99.90;;;;;;5094695;28;20043;-61
2020/12/24 00:35:17;;;;;;;34.42;22.35;;;12.40;99.90;;;;;;5116525;28;20043;-60
2020/12/24 00:37:54;;;;;;;36.30;24.65;;;12.40;99.90;;;;;;5099494;28;20051;-61
2020/12/24 00:40:27;;;;;;;32.70;24.88;;;12.40;99.90;;;;;;5117135;28;20077;-60
2020/12/24 00:43:08;;;;;;;35.05;23.88;;;12.40;99.90;;;;;;5094181;28;20036;-61
2020/12/24 00:45:43;;;;;;;32.03;22.67;;;12.40;99.90;;;;;;5078348;28;20176;-61
2020/12/24 00:48:14;;;;;;;27.50;20.83;;;12.30;99.90;;;;;;5093333;28;20290;-60
2020/12/24 00:50:46;;;;;;;26.20;18.35;;;12.30;99.90;;;;;;5073971;28;20052;-61
2020/12/24 00:53:13;;;;;;;31.70;21.45;;;12.30;99.90;;;;;;5077112;28;20040;-61
2020/12/24 00:55:40;;;;;;;28.65;17.85;;;12.30;99.90;;;;;;5077470;28;20076;-60
2020/12/24 00:58:08;;;;;;;25.75;18.20;;;12.30;99.90;;;;;;5060405;28;20076;-60
2020/12/24 01:00:36;;;;;;;30.60;21.13;;;12.30;99.90;;;;;;5093819;28;20130;-61
2020/12/24 01:03:03;;;;;;;33.60;18.33;;;12.30;99.90;;;;;;5076612;28;20226;-61
2020/12/24 01:05:31;;;;;;;31.90;20.05;;;12.30;99.90;;;;;;5080204;28;20123;-61
2020/12/24 01:07:59;;;;;;;27.08;19.60;;;12.30;99.90;;;;;;5094255;28;20054;-61
2020/12/24 01:10:26;;;;;;;26.33;19.05;;;12.30;99.90;;;;;;5084439;28;20044;-61
2020/12/24 01:12:53;;;;;;;30.15;20.73;;;12.30;99.90;;;;;;5093410;28;20076;-60
2020/12/24 01:15:21;;;;;;;30.83;21.13;;;12.20;99.90;;;;;;5097667;28;20047;-61
2020/12/24 01:17:49;;;;;;;28.65;21.23;;;12.20;99.90;;;;;;5097732;28;20107;-61
2020/12/24 01:20:16;;;;;;;32.72;19.20;;;12.20;99.90;;;;;;5097066;28;20510;-61
2020/12/24 01:22:43;;;;;;;30.17;20.38;;;12.20;99.90;;;;;;5115650;27;20135;-61
2020/12/24 01:25:11;;;;;;;29.83;20.73;;;12.20;99.90;;;;;;5092321;28;20051;-61
2020/12/24 01:27:40;;;;;;;32.75;20.60;;;12.20;99.90;;;;;;5098245;28;20055;-61
2020/12/24 01:30:07;;;;;;;33.35;20.67;;;12.20;99.90;;;;;;5097082;28;20052;-61
2020/12/24 01:32:35;;;;;;;32.10;22.33;;;12.20;99.90;;;;;;5080290;28;20051;-61
2020/12/24 01:35:03;;;;;;;29.55;21.52;;;12.20;99.90;;;;;;5097407;28;20089;-61
2020/12/24 01:37:33;;;;;;;33.58;23.73;;;12.20;99.90;;;;;;5098243;28;20051;-61
2020/12/24 01:40:00;;;;;;;38.28;22.30;;;12.20;99.90;;;;;;5097250;28;20139;-61
2020/12/24 01:42:28;;;;;;;38.95;21.02;;;12.20;99.90;;;;;;5098187;28;20481;-61
2020/12/24 01:44:57;;;;;;;29.00;21.58;;;12.20;99.90;;;;;;5077133;28;20131;-61
2020/12/24 01:47:28;;;;;;;30.55;19.83;;;12.20;99.90;;;;;;5097790;28;20047;-61
2020/12/24 01:49:55;;;;;;;30.85;20.77;;;12.20;99.90;;;;;;5097326;28;20055;-61
2020/12/24 01:52:30;;;;;;;28.95;20.35;;;12.20;99.90;;;;;;5116024;28;20127;-60
2020/12/24 01:54:58;;;;;;;31.05;20.00;;;12.20;99.90;;;;;;5077310;28;20044;-61
2020/12/24 01:57:28;;;;;;;31.05;19.77;;;12.10;99.90;;;;;;5082901;28;20104;-61
2020/12/24 01:59:56;;;;;;;29.50;21.63;;;12.20;99.90;;;;;;5075675;28;20086;-61
2020/12/24 02:02:30;;;;;;;30.00;20.48;;;12.20;99.90;;;;;;5061028;28;20510;-61
2020/12/24 02:04:58;;;;;;;29.00;19.45;;;12.20;99.90;;;;;;5094662;28;20099;-61
2020/12/24 02:07:27;;;;;;;30.50;20.60;;;12.20;99.90;;;;;;5095174;28;20086;-61
2020/12/24 02:09:55;;;;;;;29.60;19.95;;;12.20;99.90;;;;;;5076383;28;20055;-61
2020/12/24 02:12:22;;;;;;;30.50;19.30;;;12.20;99.90;;;;;;5077353;28;20072;-61
2020/12/24 02:14:54;;;;;;;33.70;22.27;;;12.20;99.90;;;;;;5059556;28;20052;-61
2020/12/24 02:17:29;;;;;;;34.08;20.75;;;12.20;99.90;;;;;;5058452;28;20063;-61
2020/12/24 02:19:59;;;;;;;37.22;23.20;;;12.20;99.90;;;;;;5092847;28;20052;-61
2020/12/24 02:22:26;;;;;;;31.63;19.63;;;12.20;99.90;;;;;;5094697;28;20093;-61
2020/12/24 02:24:53;;;;;;;36.70;21.45;;;12.20;99.90;;;;;;5051832;28;20047;-62
2020/12/24 02:27:21;;;;;;;39.65;23.08;;;12.20;99.90;;;;;;5076613;28;20048;-61
2020/12/24 02:29:48;;;;;;;38.05;23.02;;;12.20;99.90;;;;;;5056071;28;20048;-62
2020/12/24 02:32:15;;;;;;;42.20;24.85;;;12.20;99.90;;;;;;5091918;28;20093;-61
2020/12/24 02:34:43;;;;;;;34.20;22.08;;;12.20;99.90;;;;;;5057259;28;20086;-61
2020/12/24 02:37:12;;;;;;;29.10;20.17;;;12.20;99.90;;;;;;5094553;28;20056;-63
2020/12/24 02:39:41;;;;;;;34.30;23.25;;;12.20;99.90;;;;;;5076864;28;20051;-61
2020/12/24 02:42:08;;;;;;;36.30;23.23;;;12.20;99.90;;;;;;5076491;28;20482;-62
2020/12/24 02:44:35;;;;;;;39.67;25.92;;;12.10;99.90;;;;;;5058934;28;20055;-62
2020/12/24 02:47:02;;;;;;;38.55;24.52;;;12.10;99.90;;;;;;5094595;28;20040;-61
2020/12/24 02:49:29;;;;;;;34.30;22.30;;;12.10;99.90;;;;;;5075556;28;20130;-61
2020/12/24 02:51:57;;;;;;;54.45;29.98;;;12.10;99.90;;;;;;5094301;28;20048;-61
2020/12/24 02:54:28;;;;;;;48.60;31.00;;;12.10;99.90;;;;;;5093895;28;20048;-61
2020/12/24 02:57:00;;;;;;;40.45;23.23;;;12.10;99.90;;;;;;5075599;28;20056;-61
2020/12/24 02:59:28;;;;;;;30.10;20.65;;;12.10;99.90;;;;;;5075697;28;20048;-61
2020/12/24 03:01:58;;;;;;;26.27;18.27;;;12.00;99.90;;;;;;5059561;28;20043;-61
2020/12/24 03:04:28;;;;;;;26.40;17.20;;;12.00;99.90;;;;;;5059266;28;20158;-61
2020/12/24 03:06:55;;;;;;;25.55;18.10;;;12.00;99.90;;;;;;5075831;28;20050;-62
2020/12/24 03:09:22;;;;;;;27.80;17.13;;;12.00;99.90;;;;;;5093373;28;20127;-61
2020/12/24 03:11:50;;;;;;;27.60;16.75;;;11.90;99.90;;;;;;5076210;28;20523;-61
2020/12/24 03:14:18;;;;;;;27.67;16.75;;;11.90;99.90;;;;;;5075437;28;20048;-61
2020/12/24 03:16:47;;;;;;;22.40;15.75;;;11.80;99.90;;;;;;5093497;28;20113;-61
2020/12/24 03:19:14;;;;;;;26.77;17.38;;;11.80;99.90;;;;;;5052304;28;20128;-61
2020/12/24 03:21:41;;;;;;;27.08;16.77;;;11.70;99.90;;;;;;5070675;28;20052;-61
2020/12/24 03:24:11;;;;;;;24.45;17.23;;;11.60;99.90;;;;;;5076123;28;20064;-61
2020/12/24 03:26:41;;;;;;;20.67;15.48;;;11.60;99.90;;;;;;5093541;28;20130;-61
2020/12/24 03:29:08;;;;;;;24.55;16.15;;;11.50;99.90;;;;;;5058984;28;20047;-61
2020/12/24 03:31:36;;;;;;;25.33;15.57;;;11.50;99.90;;;;;;5075288;28;20064;-62
2020/12/24 03:34:04;;;;;;;22.20;15.75;;;11.40;99.90;;;;;;5056786;28;20500;-62
2020/12/24 03:36:31;;;;;;;23.55;15.60;;;11.40;99.90;;;;;;5075243;28;20052;-63
2020/12/24 03:38:58;;;;;;;25.13;15.40;;;11.50;99.90;;;;;;5092691;28;20055;-61
2020/12/24 03:41:26;;;;;;;23.90;15.85;;;11.50;99.90;;;;;;5075419;28;20059;-61
2020/12/24 03:43:53;;;;;;;23.08;14.50;;;11.50;99.90;;;;;;5074657;28;20048;-63
2020/12/24 03:46:20;;;;;;;22.20;14.32;;;11.40;99.90;;;;;;5075186;28;20051;-62
2020/12/24 03:48:47;;;;;;;19.58;14.55;;;11.40;99.90;;;;;;5092622;28;20068;-61
2020/12/24 03:51:15;;;;;;;20.58;14.88;;;11.40;99.90;;;;;;5066428;28;20040;-62
2020/12/24 03:53:42;;;;;;;21.92;14.48;;;11.30;99.90;;;;;;5074704;28;20044;-61
2020/12/24 03:56:10;;;;;;;18.13;12.65;;;11.30;99.90;;;;;;5096861;28;20043;-61
2020/12/24 03:58:37;;;;;;;16.85;12.38;;;11.20;99.90;;;;;;5094672;28;20580;-61
2020/12/24 04:01:05;;;;;;;23.25;14.27;;;11.20;99.90;;;;;;5095304;28;20520;-61
2020/12/24 04:03:32;;;;;;;19.58;12.52;;;11.20;99.90;;;;;;5094913;28;20493;-61
2020/12/24 04:06:00;;;;;;;20.48;12.65;;;11.20;99.90;;;;;;5075231;28;20070;-61
2020/12/24 04:08:27;;;;;;;17.85;12.05;;;11.20;99.90;;;;;;5078153;28;20040;-61
2020/12/24 04:10:54;;;;;;;17.45;11.80;;;11.20;99.90;;;;;;5094995;28;20055;-61
2020/12/24 04:13:22;;;;;;;19.08;12.27;;;11.20;99.90;;;;;;5094891;28;20096;-61
2020/12/24 04:15:49;;;;;;;20.98;13.52;;;11.20;99.90;;;;;;5095075;28;20437;-61
2020/12/24 04:18:16;;;;;;;16.30;11.52;;;11.20;99.90;;;;;;5094774;28;20048;-61
2020/12/24 04:20:54;;;;;;;20.02;12.50;;;11.20;99.90;;;;;;5110087;28;20055;-61
2020/12/24 04:23:23;;;;;;;20.15;13.80;;;11.30;99.90;;;;;;5078002;28;20044;-61
2020/12/24 04:25:50;;;;;;;18.10;13.00;;;11.30;99.90;;;;;;5058547;28;20063;-61
2020/12/24 04:28:18;;;;;;;19.27;12.52;;;11.30;99.90;;;;;;5089975;28;20058;-61
2020/12/24 04:30:45;;;;;;;17.33;10.45;;;11.30;99.90;;;;;;5094854;28;20124;-61
2020/12/24 04:33:13;;;;;;;17.20;12.00;;;11.30;99.90;;;;;;5093300;28;20387;-61
2020/12/24 04:35:40;;;;;;;15.90;10.65;;;11.30;99.90;;;;;;5094747;28;20058;-61
2020/12/24 04:38:09;;;;;;;18.20;12.18;;;11.30;99.90;;;;;;5094369;28;20493;-61
2020/12/24 04:40:36;;;;;;;17.80;11.13;;;11.40;99.90;;;;;;5074510;28;20044;-61
2020/12/24 04:43:04;;;;;;;15.77;10.75;;;11.30;99.90;;;;;;5076824;28;20494;-61
2020/12/24 04:45:33;;;;;;;19.73;12.48;;;11.30;99.90;;;;;;5078160;28;20047;-61
2020/12/24 04:48:00;;;;;;;20.10;13.25;;;11.30;99.90;;;;;;5094698;28;20058;-61
2020/12/24 04:50:30;;;;;;;16.85;11.32;;;11.30;99.90;;;;;;5109694;28;20096;-61
2020/12/24 04:52:58;;;;;;;18.15;11.63;;;11.30;99.90;;;;;;5094093;28;20129;-61
2020/12/24 04:55:25;;;;;;;16.05;11.32;;;11.30;99.90;;;;;;5112619;28;20047;-61
2020/12/24 04:57:55;;;;;;;17.33;11.00;;;11.30;99.90;;;;;;5077450;28;20147;-61
2020/12/24 05:00:23;;;;;;;17.55;10.85;;;11.40;99.90;;;;;;5102459;28;20063;-61
2020/12/24 05:03:05;;;;;;;16.52;10.93;;;11.40;99.90;;;;;;5074997;28;20056;-61
2020/12/24 05:05:34;;;;;;;17.20;11.50;;;11.40;99.90;;;;;;5112409;28;20047;-61
2020/12/24 05:08:04;;;;;;;15.52;9.60;;;11.40;99.90;;;;;;5112243;28;20043;-61
2020/12/24 05:10:41;;;;;;;14.02;9.52;;;11.40;99.90;;;;;;5112512;28;20489;-61
2020/12/24 05:13:19;;;;;;;15.75;10.68;;;11.40;99.90;;;;;;5094363;28;20170;-61
2020/12/24 05:15:47;;;;;;;16.70;10.90;;;11.50;99.90;;;;;;5108847;28;20055;-61
2020/12/24 05:18:18;;;;;;;19.15;11.88;;;11.50;99.90;;;;;;5060193;28;20131;-61
2020/12/24 05:20:46;;;;;;;26.67;14.10;;;11.50;99.90;;;;;;5078113;28;20068;-61
2020/12/24 05:23:29;;;;;;;20.92;13.43;;;11.50;99.90;;;;;;5098025;28;20051;-61
2020/12/24 05:25:56;;;;;;;21.70;15.30;;;11.50;99.90;;;;;;5078312;28;20055;-61
2020/12/24 05:28:28;;;;;;;21.02;13.98;;;11.50;99.90;;;;;;5080677;28;20043;-61
2020/12/24 05:30:56;;;;;;;21.70;13.60;;;11.50;99.90;;;;;;5058450;28;20071;-61
2020/12/24 05:33:34;;;;;;;21.17;12.77;;;11.50;99.90;;;;;;5097730;28;20040;-61
2020/12/24 05:36:23;;;;;;;19.45;11.35;;;11.50;99.90;;;;;;5115985;28;20052;-61
2020/12/24 05:38:52;;;;;;;15.05;11.73;;;11.50;99.90;;;;;;5115347;28;20047;-61
2020/12/24 05:41:45;;;;;;;19.73;12.30;;;11.50;99.90;;;;;;5080982;28;20071;-61
2020/12/24 05:44:13;;;;;;;14.57;10.48;;;11.50;99.90;;;;;;5095511;28;20048;-61
2020/12/24 05:46:44;;;;;;;17.95;12.70;;;11.50;99.90;;;;;;5081087;28;20392;-61
2020/12/24 05:49:14;;;;;;;18.35;11.45;;;11.50;99.90;;;;;;5096510;27;20505;-61
2020/12/24 05:52:09;;;;;;;18.83;11.10;;;11.40;99.90;;;;;;5095793;28;20041;-62
2020/12/24 05:54:39;;;;;;;18.42;11.05;;;11.40;99.90;;;;;;5097137;28;20065;-62
2020/12/24 05:57:06;;;;;;;16.45;10.90;;;11.40;99.90;;;;;;5112927;28;20079;-62
2020/12/24 05:59:33;;;;;;;17.60;12.40;;;11.30;99.90;;;;;;5079526;28;20065;-61
2020/12/24 06:02:13;;;;;;;15.15;10.95;;;11.20;99.90;;;;;;5079026;28;20047;-62
2020/12/24 06:04:46;;;;;;;16.45;10.65;;;11.20;99.90;;;;;;5067772;27;20405;-61
2020/12/24 06:07:36;;;;;;;16.92;10.77;;;11.20;99.90;;;;;;5072601;28;20497;-61
2020/12/24 06:10:09;;;;;;;16.00;11.43;;;11.20;99.90;;;;;;5112431;27;20044;-61
2020/12/24 06:12:50;;;;;;;16.73;11.00;;;11.20;99.90;;;;;;5075969;28;20482;-62
2020/12/24 06:15:19;;;;;;;17.50;11.45;;;11.30;99.90;;;;;;5110851;27;20142;-61
2020/12/24 06:17:48;;;;;;;32.08;20.40;;;11.30;99.90;;;;;;5074840;28;20129;-62
2020/12/24 06:20:19;;;;;;;64.68;37.58;;;11.40;99.90;;;;;;5073694;28;20445;-61
2020/12/24 06:22:47;;;;;;;41.25;28.23;;;11.50;99.90;;;;;;5096534;28;20072;-61
2020/12/24 06:25:15;;;;;;;27.55;19.52;;;11.60;99.90;;;;;;5096757;28;20051;-61
2020/12/24 06:27:52;;;;;;;24.05;18.75;;;12.00;99.90;;;;;;5096913;28;20044;-62
2020/12/24 06:30:22;;;;;;;22.08;13.43;;;12.40;99.90;;;;;;5093666;28;20490;-62
2020/12/24 06:32:53;;;;;;;17.77;12.48;;;12.50;99.90;;;;;;5095599;28;20101;-62
2020/12/24 06:35:40;;;;;;;16.60;12.30;;;12.50;99.90;;;;;;5104271;28;20056;-61
2020/12/24 06:38:09;;;;;;;16.20;12.65;;;12.60;99.90;;;;;;5097115;28;20454;-62
2020/12/24 06:40:39;;;;;;;17.35;12.35;;;12.70;99.90;;;;;;5095776;28;20055;-62
2020/12/24 06:43:07;;;;;;;14.70;10.35;;;12.90;99.90;;;;;;5077662;28;20147;-61
2020/12/24 06:45:38;;;;;;;11.70;9.57;;;13.50;99.90;;;;;;5052108;28;20468;-62
2020/12/24 06:48:25;;;;;;;15.93;10.85;;;14.50;99.90;;;;;;5095899;28;20043;-61
2020/12/24 06:51:00;;;;;;;13.38;8.68;;;15.50;99.90;;;;;;5073134;28;20055;-61
2020/12/24 06:53:35;;;;;;;11.43;7.95;;;15.90;99.90;;;;;;5111738;27;20071;-61
2020/12/24 06:56:16;;;;;;;14.57;9.60;;;16.00;99.90;;;;;;5114373;27;20083;-62
2020/12/24 06:58:45;;;;;;;11.60;9.07;;;16.40;99.90;;;;;;5112661;28;20089;-62
2020/12/24 07:01:23;;;;;;;11.00;8.52;;;16.90;99.90;;;;;;5112766;28;20108;-62
2020/12/24 07:03:52;;;;;;;12.63;9.43;;;17.00;99.90;;;;;;5111306;28;20066;-61
2020/12/24 07:06:58;;;;;;;12.23;9.05;;;17.50;99.80;;;;;;5060231;28;20101;-62
2020/12/24 07:09:25;;;;;;;11.13;9.18;;;18.20;98.30;;;;;;5108902;28;20039;-61
2020/12/24 07:11:53;;;;;;;13.20;8.82;;;19.10;97.00;;;;;;5114094;28;20191;-62
2020/12/24 07:14:28;;;;;;;11.23;7.93;;;19.80;95.50;;;;;;5095121;28;20055;-61
2020/12/24 07:16:57;;;;;;;12.02;7.78;;;20.50;94.20;;;;;;5095218;28;20134;-62
2020/12/24 07:19:30;;;;;;;9.82;8.18;;;21.30;92.80;;;;;;5087310;28;20048;-61
2020/12/24 07:21:57;;;;;;;10.40;7.55;;;22.00;91.50;;;;;;5073538;28;20105;-61
2020/12/24 07:24:29;;;;;;;10.73;8.27;;;22.30;90.30;;;;;;5078169;28;20067;-62
2020/12/24 07:26:59;;;;;;;9.05;6.93;;;22.60;88.70;;;;;;5109830;28;20411;-61
2020/12/24 07:29:30;;;;;;;9.73;7.10;;;22.80;87.70;;;;;;5095972;28;20039;-62
2020/12/24 07:32:04;;;;;;;8.93;6.95;;;23.00;86.30;;;;;;5087057;28;20046;-62
2020/12/24 07:34:34;;;;;;;9.55;7.43;;;23.20;85.30;;;;;;5092993;28;20432;-62
2020/12/24 07:37:03;;;;;;;9.70;7.00;;;23.70;83.90;;;;;;5057879;28;20052;-62
2020/12/24 07:39:31;;;;;;;11.60;8.13;;;24.20;81.90;;;;;;5107280;28;20051;-62
2020/12/24 07:41:59;;;;;;;10.73;7.43;;;24.40;80.30;;;;;;5057187;27;20055;-62
2020/12/24 07:44:26;;;;;;;10.75;8.38;;;24.40;79.10;;;;;;5091255;28;20393;-61
2020/12/24 07:47:03;;;;;;;11.45;7.55;;;24.10;80.50;;;;;;5058491;27;20166;-62
2020/12/24 07:49:32;;;;;;;11.02;7.55;;;23.60;80.90;;;;;;5092060;28;20077;-62
2020/12/24 07:52:01;;;;;;;10.80;7.95;;;23.30;82.50;;;;;;5105588;28;20051;-62
2020/12/24 07:54:29;;;;;;;11.55;7.82;;;23.10;83.10;;;;;;5089795;28;20043;-62
2020/12/24 07:56:57;;;;;;;13.73;8.70;;;23.00;83.80;;;;;;5081532;28;20166;-62
2020/12/24 07:59:25;;;;;;;10.88;8.40;;;23.00;83.80;;;;;;5073291;28;20060;-62
2020/12/24 08:02:03;;;;;;;9.68;7.00;;;22.90;84.10;;;;;;5091695;28;20052;-62
2020/12/24 08:04:33;;;;;;;8.73;6.38;;;22.60;84.30;;;;;;5071073;28;20496;-62
2020/12/24 08:07:07;;;;;;;7.82;6.30;;;22.40;85.30;;;;;;5074034;28;20051;-62
2020/12/24 08:09:35;;;;;;;9.43;7.80;;;22.30;85.90;;;;;;5067408;28;20208;-61
2020/12/24 08:12:02;;;;;;;18.40;12.73;;;22.00;86.80;;;;;;5048591;28;20483;-62
2020/12/24 08:14:30;;;;;;;25.17;15.27;;;21.90;87.20;;;;;;5073856;28;20076;-62
2020/12/24 08:17:11;;;;;;;24.05;17.15;;;21.80;87.80;;;;;;5073481;28;20055;-62
2020/12/24 08:19:54;;;;;;;50.50;34.80;;;21.60;88.30;;;;;;5072833;28;20052;-62
2020/12/24 08:22:59;;;;;;;48.30;33.88;;;21.50;88.80;;;;;;5065786;28;20048;-61
2020/12/24 08:25:28;;;;;;;29.08;20.38;;;21.40;89.60;;;;;;5086503;28;20391;-62
2020/12/24 08:27:57;;;;;;;30.60;21.15;;;21.20;90.10;;;;;;5090835;28;20101;-62
2020/12/24 08:30:29;;;;;;;29.23;17.70;;;21.10;90.40;;;;;;5036293;28;20059;-62
2020/12/24 08:32:58;;;;;;;22.38;15.93;;;20.90;90.60;;;;;;5057162;28;20040;-62
2020/12/24 08:35:29;;;;;;;18.13;13.13;;;20.70;91.00;;;;;;5092143;28;20152;-61
2020/12/24 08:38:14;;;;;;;16.67;13.23;;;20.60;91.50;;;;;;5074270;28;20443;-62
2020/12/24 08:40:42;;;;;;;19.10;15.60;;;20.30;92.10;;;;;;5062129;28;20139;-61
2020/12/24 08:43:11;;;;;;;15.00;11.75;;;19.90;92.60;;;;;;5087760;28;20067;-62
2020/12/24 08:45:56;;;;;;;11.68;9.32;;;19.60;93.00;;;;;;5092000;28;20502;-61
2020/12/24 08:48:29;;;;;;;;;;;19.40;93.70;;;;;;5058376;28;20056;-61
2020/12/24 08:50:59;;;;;;;14.40;8.20;;;19.10;93.90;;;;;;5059850;28;19924;-62
2020/12/24 08:53:31;;;;;;;14.27;9.60;;;19.00;94.70;;;;;;5043316;28;20052;-61
2020/12/24 08:56:19;;;;;;;11.10;7.10;;;19.00;95.00;;;;;;5077182;28;20078;-61
2020/12/24 08:58:55;;;;;;;9.45;7.22;;;19.10;95.30;;;;;;5107432;27;20093;-61
2020/12/24 09:01:22;;;;;;;8.98;6.65;;;18.90;95.00;;;;;;5115003;28;20366;-61
2020/12/24 09:03:52;;;;;;;8.60;6.40;;;18.80;95.50;;;;;;5115344;28;20048;-61
2020/12/24 09:06:20;;;;;;;10.35;6.40;;;18.70;95.80;;;;;;5098653;28;20378;-61
2020/12/24 09:08:51;;;;;;;11.48;7.70;;;18.90;96.00;;;;;;5116392;28;20138;-61
2020/12/24 09:11:25;;;;;;;11.45;6.85;;;18.90;95.80;;;;;;5090215;27;20051;-61
2020/12/24 09:14:07;;;;;;;10.00;7.13;;;19.00;95.60;;;;;;5113911;28;20135;-61
2020/12/24 09:16:34;;;;;;;8.70;5.70;;;19.30;95.40;;;;;;5096728;28;20134;-61
2020/12/24 09:19:09;;;;;;;5.72;3.65;;;19.10;94.40;;;;;;5098058;28;20043;-61
2020/12/24 09:21:54;;;;;;;7.40;4.68;;;18.80;93.90;;;;;;5098008;28;20397;-62
2020/12/24 09:24:22;;;;;;;5.55;3.83;;;18.70;94.50;;;;;;5097295;28;20039;-62
2020/12/24 09:26:52;;;;;;;6.43;5.32;;;18.70;94.20;;;;;;5090638;28;20082;-62
2020/12/24 09:29:22;;;;;;;8.77;5.97;;;18.90;94.50;;;;;;5094550;28;20055;-61
2020/12/24 09:31:54;;;;;;;8.40;5.35;;;19.00;94.00;;;;;;5092873;28;20040;-61
2020/12/24 09:34:22;;;;;;;11.20;5.88;;;18.90;93.30;;;;;;5107627;28;20117;-61
2020/12/24 09:36:50;;;;;;;6.72;4.47;;;18.80;93.40;;;;;;5088809;28;20054;-61
2020/12/24 09:39:19;;;;;;;9.15;5.18;;;18.80;92.80;;;;;;5096050;28;20047;-61
2020/12/24 09:41:48;;;;;;;4.43;3.38;;;18.90;92.40;;;;;;5114949;28;20127;-61
2020/12/24 09:44:16;;;;;;;5.38;3.47;;;19.10;92.10;;;;;;5093444;28;20051;-61
2020/12/24 09:46:46;;;;;;;5.60;3.10;;;19.20;91.80;;;;;;5074917;28;20135;-61
2020/12/24 09:49:15;;;;;;;6.28;3.20;;;19.10;91.10;;;;;;5110887;28;20052;-61
2020/12/24 09:51:43;;;;;;;5.60;2.88;;;19.10;91.60;;;;;;5115703;28;20052;-61
2020/12/24 09:54:18;;;;;;;7.03;3.20;;;19.10;91.40;;;;;;5081822;28;20404;-61
2020/12/24 09:56:46;;;;;;;4.03;2.90;;;19.00;91.70;;;;;;5097151;28;20047;-62
2020/12/24 09:59:13;;;;;;;2.40;1.77;;;19.10;91.80;;;;;;5097623;28;20047;-61
2020/12/24 10:01:41;;;;;;;6.55;3.13;;;19.00;91.40;;;;;;5097025;28;20405;-61
2020/12/24 10:04:13;;;;;;;4.35;2.38;;;19.10;91.50;;;;;;5097508;28;20051;-61
2020/12/24 10:06:43;;;;;;;5.80;3.47;;;19.00;91.40;;;;;;5076203;28;20052;-60
2020/12/24 10:09:13;;;;;;;2.63;2.38;;;19.00;91.70;;;;;;5106816;27;20071;-61
2020/12/24 10:11:48;;;;;;;4.22;2.63;;;18.90;91.70;;;;;;5097156;28;20398;-61
2020/12/24 10:14:16;;;;;;;2.78;1.85;;;18.90;91.80;;;;;;5096937;28;20047;-61
2020/12/24 10:16:47;;;;;;;5.53;3.88;;;18.70;92.10;;;;;;5096422;28;20130;-60
2020/12/24 10:19:17;;;;;;;7.18;4.00;;;18.70;92.30;;;;;;5071339;28;20071;-60
2020/12/24 10:21:44;;;;;;;5.50;3.47;;;18.60;92.50;;;;;;5077208;28;20050;-61
2020/12/24 10:24:18;;;;;;;3.80;2.00;;;18.60;92.40;;;;;;5096789;28;20058;-60
2020/12/24 10:26:46;;;;;;;7.28;3.97;;;18.60;91.80;;;;;;5096923;28;20168;-61
2020/12/24 10:29:19;;;;;;;11.68;6.32;;;18.60;91.90;;;;;;5096845;28;20116;-61
2020/12/24 10:31:46;;;;;;;21.48;11.70;;;18.60;92.00;;;;;;5114590;28;20054;-61
2020/12/24 10:34:14;;;;;;;5.95;3.95;;;18.70;92.20;;;;;;5096458;28;20131;-60
2020/12/24 10:36:42;;;;;;;9.52;5.82;;;18.80;91.60;;;;;;5096536;28;20047;-61
2020/12/24 10:39:10;;;;;;;5.22;3.33;;;18.80;91.80;;;;;;5094807;28;20088;-61
2020/12/24 10:41:47;;;;;;;6.20;3.10;;;18.80;91.30;;;;;;5086525;28;20047;-61
2020/12/24 10:44:17;;;;;;;4.90;2.53;;;18.80;91.60;;;;;;5109437;28;20059;-61
2020/12/24 10:46:45;;;;;;;4.05;2.58;;;18.70;91.50;;;;;;5109049;28;20050;-61
2020/12/24 10:49:15;;;;;;;3.60;2.55;;;18.80;91.50;;;;;;5082131;28;20070;-61
2020/12/24 10:51:43;;;;;;;6.55;2.80;;;18.80;91.40;;;;;;5096117;28;20077;-61
2020/12/24 10:54:15;;;;;;;8.43;4.47;;;18.90;91.40;;;;;;5114270;28;20048;-60
2020/12/24 10:56:50;;;;;;;7.13;4.63;;;19.00;91.70;;;;;;5089868;28;20078;-60
2020/12/24 10:59:18;;;;;;;53.03;31.98;;;19.10;91.90;;;;;;5093813;28;20498;-61
2020/12/24 11:01:49;;;;;;;22.02;15.27;;;19.30;91.60;;;;;;5075919;28;20048;-60
2020/12/24 11:04:20;;;;;;;12.65;7.25;;;19.50;90.90;;;;;;5075884;28;20043;-60
2020/12/24 11:06:47;;;;;;;3.28;1.75;;;19.70;90.50;;;;;;5093259;28;20383;-60
2020/12/24 11:09:15;;;;;;;4.70;1.92;;;19.50;89.40;;;;;;5075619;28;20040;-60
2020/12/24 11:11:43;;;;;;;3.42;1.90;;;19.30;90.10;;;;;;5056614;28;20052;-60
2020/12/24 11:14:10;;;;;;;5.70;2.95;;;19.30;90.20;;;;;;5075635;28;20052;-59
2020/12/24 11:16:38;;;;;;;12.93;10.63;;;19.10;90.20;;;;;;5058849;28;20044;-53
2020/12/24 11:19:06;;;;;;;6.55;5.38;;;18.90;90.60;;;;;;5038789;28;20526;-59
2020/12/24 11:21:37;;;;;;;3.33;2.50;;;18.90;91.00;;;;;;5074746;28;20488;-61
2020/12/24 11:24:06;;;;;;;3.55;1.92;;;18.90;91.00;;;;;;4675570;28;20635;-53
2020/12/24 11:26:36;;;;;;;3.45;2.17;;;19.00;90.80;;;;;;4671677;28;20333;-59
2020/12/24 11:29:06;;;;;;;2.72;1.90;;;18.90;90.60;;;;;;5070414;28;20047;-59
2020/12/24 11:31:35;;;;;;;3.28;2.78;;;18.90;90.80;;;;;;5090372;28;20052;-62
2020/12/24 11:34:04;;;;;;;5.80;3.35;;;19.00;91.00;;;;;;5070910;28;20060;-60
2020/12/24 11:36:38;;;;;;;4.00;2.80;;;18.90;90.70;;;;;;5092179;28;20052;-60
2020/12/24 11:39:05;;;;;;;2.83;1.95;;;18.80;90.60;;;;;;5084020;28;20083;-60
2020/12/24 11:41:34;;;;;;;3.75;2.90;;;18.70;90.50;;;;;;5048613;28;20047;-60
2020/12/24 11:44:03;;;;;;;3.95;2.60;;;18.60;90.50;;;;;;5057169;28;20138;-60
2020/12/24 11:46:31;;;;;;;5.85;3.83;;;18.40;91.20;;;;;;5041654;28;20044;-59
2020/12/24 11:48:59;;;;;;;7.80;4.50;;;18.20;91.40;;;;;;5092973;28;20402;-60
2020/12/24 11:51:27;;;;;;;5.82;3.75;;;18.20;91.90;;;;;;5057868;28;20044;-59
2020/12/24 11:53:54;;;;;;;4.70;2.58;;;18.10;92.20;;;;;;5057254;28;20131;-59
2020/12/24 11:56:23;;;;;;;3.55;2.58;;;17.90;92.10;;;;;;5077308;28;20060;-59
2020/12/24 11:58:52;;;;;;;3.85;2.40;;;17.90;92.60;;;;;;5094832;28;20043;-59
2020/12/24 12:01:23;;;;;;;5.28;2.97;;;18.00;92.30;;;;;;5113482;28;20051;-59
2020/12/24 12:03:52;;;;;;;5.28;3.00;;;17.90;92.50;;;;;;5113300;28;20105;-59
2020/12/24 12:06:22;;;;;;;4.90;3.28;;;17.90;92.60;;;;;;5095626;28;20489;-58
2020/12/24 12:08:50;;;;;;;5.20;2.95;;;18.00;93.10;;;;;;5113067;28;20098;-59
2020/12/24 12:11:19;;;;;;;3.53;2.50;;;17.90;93.10;;;;;;5113124;28;20058;-59
2020/12/24 12:13:47;;;;;;;6.82;4.07;;;17.90;93.00;;;;;;5058457;28;20043;-59
2020/12/24 12:16:21;;;;;;;8.98;4.45;;;17.90;93.50;;;;;;5086665;28;20066;-59
2020/12/24 12:18:48;;;;;;;6.47;4.00;;;17.80;93.40;;;;;;5094884;28;20055;-59
2020/12/24 12:21:21;;;;;;;6.45;3.90;;;17.80;93.60;;;;;;5088100;28;20206;-59
2020/12/24 12:23:50;;;;;;;7.57;5.05;;;17.80;94.00;;;;;;5094828;28;20079;-59
2020/12/24 12:26:17;;;;;;;7.55;4.57;;;17.80;94.60;;;;;;5078393;28;20071;-59
2020/12/24 12:28:46;;;;;;;4.85;3.45;;;17.70;93.90;;;;;;5077895;28;20534;-59
2020/12/24 12:31:19;;;;;;;7.53;4.07;;;17.50;94.10;;;;;;4659611;28;20707;-50
2020/12/24 12:33:48;;;;;;;5.85;4.22;;;17.20;94.90;;;;;;4861665;28;20047;-59
2020/12/24 12:36:18;;;;;;;7.50;4.43;;;17.00;95.50;;;;;;5073652;28;20044;-59
2020/12/24 12:38:50;;;;;;;8.85;5.03;;;17.00;96.20;;;;;;5115415;27;20054;-60
2020/12/24 12:41:19;;;;;;;7.00;5.13;;;16.80;96.50;;;;;;5086680;28;20032;-60
2020/12/24 12:43:47;;;;;;;7.82;4.80;;;16.70;96.80;;;;;;5098633;28;20051;-59
2020/12/24 12:46:20;;;;;;;7.78;5.55;;;16.60;97.20;;;;;;5071797;28;20067;-60
2020/12/24 12:48:49;;;;;;;10.23;5.68;;;16.60;97.70;;;;;;5109224;28;20051;-59